Time;durP1;ratioP1;P1;durP2;ratioP2;P2;SDS_P1;SDS_P2;PMS_P1;PMS_P2;Temp;Humidity;BMP_temperature;BMP_pressure;BME280_temperature;BME280_humidity;BME280_pressure;Samples;Min_cycle;Max_cycle;Signal;HPM_P1;HPM_P2
2021/03/04 00:00:34;;;;;;;41.88;26.05;;;;;;;;;;5136515;27;20186;-64
2021/03/04 00:03:01;;;;;;;45.30;26.15;;;;;;;;;;5135572;27;20205;-64
2021/03/04 00:05:28;;;;;;;43.45;24.33;;;;;;;;;;5136300;27;20246;-65
2021/03/04 00:07:55;;;;;;;39.45;24.33;;;;;;;;;;5136389;27;20196;-64
2021/03/04 00:10:23;;;;;;;40.40;24.77;;;;;;;;;;5136349;27;20242;-64
2021/03/04 00:12:53;;;;;;;38.95;25.90;;;;;;;;;;5137173;27;20204;-65
2021/03/04 00:15:21;;;;;;;37.47;23.00;;;;;;;;;;5143798;27;20201;-64
2021/03/04 00:17:49;;;;;;;33.22;23.60;;;;;;;;;;5117311;27;20204;-64
2021/03/04 00:20:17;;;;;;;34.28;23.15;;;;;;;;;;5118263;27;20262;-64
2021/03/04 00:22:44;;;;;;;34.90;23.52;;;;;;;;;;5136117;27;20190;-64
2021/03/04 00:25:11;;;;;;;44.08;24.33;;;;;;;;;;5136321;27;20198;-65
2021/03/04 00:27:39;;;;;;;35.58;23.95;;;;;;;;;;5135293;27;20676;-64
2021/03/04 00:30:07;;;;;;;31.60;21.83;;;;;;;;;;5134917;27;20197;-64
2021/03/04 00:32:34;;;;;;;37.58;25.73;;;;;;;;;;5135788;27;20193;-65
2021/03/04 00:35:01;;;;;;;39.45;23.42;;;;;;;;;;5135710;27;20555;-64
2021/03/04 00:37:28;;;;;;;42.30;23.92;;;;;;;;;;5135898;27;20190;-64
2021/03/04 00:39:54;;;;;;;38.83;23.85;;;;;;;;;;5133444;27;20225;-65
2021/03/04 00:42:21;;;;;;;39.83;25.20;;;;;;;;;;5135432;27;20190;-65
2021/03/04 00:44:53;;;;;;;35.97;24.55;;;;;;;;;;5144317;27;20198;-65
2021/03/04 00:47:20;;;;;;;33.47;22.52;;;;;;;;;;5135736;27;20597;-65
2021/03/04 00:49:51;;;;;;;41.40;22.92;;;;;;;;;;5135365;27;20217;-64
2021/03/04 00:52:17;;;;;;;36.15;22.52;;;;;;;;;;5135477;27;20282;-64
2021/03/04 00:54:44;;;;;;;34.10;21.45;;;;;;;;;;5135535;27;20652;-64
2021/03/04 00:57:11;;;;;;;38.20;21.98;;;;;;;;;;5135440;27;20197;-65
2021/03/04 00:59:39;;;;;;;33.78;21.13;;;;;;;;;;5135258;27;20628;-64
2021/03/04 01:02:09;;;;;;;35.67;22.05;;;;;;;;;;5135129;27;20198;-64
2021/03/04 01:04:36;;;;;;;37.90;23.77;;;;;;;;;;5135241;27;20192;-64
2021/03/04 01:07:05;;;;;;;31.85;21.67;;;;;;;;;;5134957;27;20570;-64
2021/03/04 01:09:32;;;;;;;35.38;21.35;;;;;;;;;;5116486;27;20201;-64
2021/03/04 01:11:58;;;;;;;31.88;22.65;;;;;;;;;;5135159;27;20288;-64
2021/03/04 01:14:26;;;;;;;32.13;22.58;;;;;;;;;;5143952;27;20228;-64
2021/03/04 01:16:52;;;;;;;28.95;20.23;;;;;;;;;;5134867;27;20194;-64
2021/03/04 01:19:19;;;;;;;30.33;21.05;;;;;;;;;;5134231;27;20230;-64
2021/03/04 01:21:49;;;;;;;34.33;20.58;;;;;;;;;;5135297;27;20185;-65
2021/03/04 01:24:22;;;;;;;32.90;19.52;;;;;;;;;;5134961;27;20197;-64
2021/03/04 01:26:50;;;;;;;26.50;18.83;;;;;;;;;;5135012;27;20239;-64
2021/03/04 01:29:18;;;;;;;30.42;19.75;;;;;;;;;;5134663;27;20206;-64
2021/03/04 01:31:47;;;;;;;31.73;18.92;;;;;;;;;;5134670;28;20204;-64
2021/03/04 01:34:14;;;;;;;34.08;19.40;;;;;;;;;;5134005;28;20198;-64
2021/03/04 01:36:43;;;;;;;28.48;18.85;;;;;;;;;;5134609;28;20562;-64
2021/03/04 01:39:11;;;;;;;33.55;20.50;;;;;;;;;;5134329;28;20221;-65
2021/03/04 01:41:39;;;;;;;33.08;19.02;;;;;;;;;;5134525;28;20212;-64
2021/03/04 01:44:06;;;;;;;31.77;19.65;;;;;;;;;;5142192;27;20210;-64
2021/03/04 01:46:32;;;;;;;34.42;20.83;;;;;;;;;;5134776;28;20178;-64
2021/03/04 01:48:59;;;;;;;37.65;20.40;;;;;;;;;;5134462;28;20229;-64
2021/03/04 01:51:26;;;;;;;43.08;20.90;;;;;;;;;;5134233;28;20225;-64
2021/03/04 01:53:53;;;;;;;26.50;19.60;;;;;;;;;;5134324;28;20646;-65
2021/03/04 01:56:20;;;;;;;31.38;19.75;;;;;;;;;;5134427;28;20196;-64
2021/03/04 01:58:46;;;;;;;35.00;18.42;;;;;;;;;;5134276;28;20213;-64
2021/03/04 02:01:13;;;;;;;32.25;20.48;;;;;;;;;;5133158;28;20205;-64
2021/03/04 02:03:42;;;;;;;25.60;18.70;;;;;;;;;;5134248;28;20198;-64
2021/03/04 02:06:11;;;;;;;31.75;20.65;;;;;;;;;;5134450;28;20193;-64
2021/03/04 02:08:42;;;;;;;30.83;20.42;;;;;;;;;;5135393;28;20206;-64
2021/03/04 02:11:14;;;;;;;29.92;19.17;;;;;;;;;;5134854;28;20247;-64
2021/03/04 02:13:40;;;;;;;28.63;18.88;;;;;;;;;;5140285;27;20210;-64
2021/03/04 02:16:15;;;;;;;27.48;18.90;;;;;;;;;;5136870;27;20261;-64
2021/03/04 02:18:48;;;;;;;28.05;19.63;;;;;;;;;;5135777;27;20285;-64
2021/03/04 02:21:25;;;;;;;34.03;20.60;;;;;;;;;;5138495;27;20175;-64
2021/03/04 02:23:54;;;;;;;31.67;18.75;;;;;;;;;;5137913;27;20201;-64
2021/03/04 02:26:30;;;;;;;27.27;18.25;;;;;;;;;;5137944;27;20197;-64
2021/03/04 02:28:58;;;;;;;25.73;17.55;;;;;;;;;;5138028;27;20572;-64
2021/03/04 02:31:28;;;;;;;27.23;18.98;;;;;;;;;;5137767;27;20194;-64
2021/03/04 02:33:55;;;;;;;33.38;19.55;;;;;;;;;;5118782;27;20198;-64
2021/03/04 02:36:24;;;;;;;29.77;19.25;;;;;;;;;;5137726;27;20189;-64
2021/03/04 02:38:51;;;;;;;29.83;18.67;;;;;;;;;;5137579;27;20213;-64
2021/03/04 02:41:20;;;;;;;25.45;19.65;;;;;;;;;;5137589;27;20242;-65
2021/03/04 02:43:47;;;;;;;28.02;19.55;;;;;;;;;;5144068;27;20205;-64
2021/03/04 02:46:14;;;;;;;28.73;18.10;;;;;;;;;;5140205;27;20208;-64
2021/03/04 02:48:41;;;;;;;25.85;17.60;;;;;;;;;;5137352;27;20222;-64
2021/03/04 02:51:09;;;;;;;24.70;17.02;;;;;;;;;;5137255;27;20239;-64
2021/03/04 02:53:37;;;;;;;28.67;17.98;;;;;;;;;;5119806;27;20683;-64
2021/03/04 02:56:04;;;;;;;26.45;16.38;;;;;;;;;;5137470;27;20290;-64
2021/03/04 02:58:33;;;;;;;24.50;16.60;;;;;;;;;;5137219;27;20676;-64
2021/03/04 03:01:02;;;;;;;28.58;18.52;;;;;;;;;;5119398;27;20194;-64
2021/03/04 03:03:29;;;;;;;26.98;16.95;;;;;;;;;;5136638;27;20660;-64
2021/03/04 03:05:58;;;;;;;27.23;17.35;;;;;;;;;;5137179;27;20222;-64
2021/03/04 03:08:25;;;;;;;25.17;17.77;;;;;;;;;;5137172;27;20602;-64
2021/03/04 03:10:53;;;;;;;26.30;16.73;;;;;;;;;;5136606;27;20220;-64
2021/03/04 03:13:21;;;;;;;30.88;17.27;;;;;;;;;;5141488;27;20197;-64
2021/03/04 03:15:52;;;;;;;30.08;16.17;;;;;;;;;;5141006;27;20197;-64
2021/03/04 03:18:19;;;;;;;29.40;19.20;;;;;;;;;;5118148;27;20228;-65
2021/03/04 03:20:47;;;;;;;25.08;17.48;;;;;;;;;;5136990;27;20190;-65
2021/03/04 03:23:13;;;;;;;22.98;16.90;;;;;;;;;;5136876;27;20701;-65
2021/03/04 03:25:40;;;;;;;26.38;16.77;;;;;;;;;;5136942;27;20271;-65
2021/03/04 03:28:07;;;;;;;25.33;17.02;;;;;;;;;;5136713;27;20194;-65
2021/03/04 03:30:33;;;;;;;28.58;17.65;;;;;;;;;;5135452;27;20229;-65
2021/03/04 03:33:03;;;;;;;26.17;16.27;;;;;;;;;;5136743;27;20194;-65
2021/03/04 03:35:37;;;;;;;30.63;17.70;;;;;;;;;;5136737;27;20202;-65
2021/03/04 03:38:04;;;;;;;31.33;19.67;;;;;;;;;;5136628;27;20297;-66
2021/03/04 03:40:33;;;;;;;23.25;17.10;;;;;;;;;;5136453;27;20218;-65
2021/03/04 03:43:01;;;;;;;34.55;18.38;;;;;;;;;;5137490;27;20198;-65
2021/03/04 03:45:31;;;;;;;26.85;17.60;;;;;;;;;;5142791;27;20202;-65
2021/03/04 03:47:58;;;;;;;35.63;17.25;;;;;;;;;;5136531;27;20580;-65
2021/03/04 03:50:25;;;;;;;28.75;17.25;;;;;;;;;;5136211;27;20190;-65
2021/03/04 03:52:53;;;;;;;36.65;17.85;;;;;;;;;;5135053;27;20233;-65
2021/03/04 03:55:20;;;;;;;32.72;18.75;;;;;;;;;;5136280;27;20242;-65
2021/03/04 03:57:48;;;;;;;28.45;17.92;;;;;;;;;;5118051;27;20209;-65
2021/03/04 04:00:23;;;;;;;28.30;16.83;;;;;;;;;;5135948;27;20218;-65
2021/03/04 04:02:50;;;;;;;25.20;16.83;;;;;;;;;;5135170;27;20206;-65
2021/03/04 04:05:18;;;;;;;28.13;18.52;;;;;;;;;;5136078;27;20186;-65
2021/03/04 04:07:45;;;;;;;28.45;17.67;;;;;;;;;;5135887;27;20206;-66
2021/03/04 04:10:14;;;;;;;30.08;17.85;;;;;;;;;;5136197;27;20672;-66
2021/03/04 04:12:41;;;;;;;23.08;17.15;;;;;;;;;;5135733;27;20194;-65
2021/03/04 04:15:08;;;;;;;29.00;17.98;;;;;;;;;;5120014;27;20208;-65
2021/03/04 04:17:35;;;;;;;32.15;17.63;;;;;;;;;;5136108;27;20196;-65
2021/03/04 04:20:04;;;;;;;35.83;18.92;;;;;;;;;;5136721;27;20228;-65
2021/03/04 04:22:31;;;;;;;28.40;17.13;;;;;;;;;;5135974;27;20217;-65
2021/03/04 04:24:58;;;;;;;32.42;17.08;;;;;;;;;;5134991;27;20198;-65
2021/03/04 04:27:26;;;;;;;30.13;20.45;;;;;;;;;;5135165;27;20567;-65
2021/03/04 04:29:52;;;;;;;23.23;15.82;;;;;;;;;;5135718;27;20216;-65
2021/03/04 04:32:23;;;;;;;26.60;17.85;;;;;;;;;;5135598;27;20264;-65
2021/03/04 04:34:50;;;;;;;28.63;17.48;;;;;;;;;;5135172;27;20201;-65
2021/03/04 04:37:16;;;;;;;27.48;15.93;;;;;;;;;;5134513;27;20205;-65
2021/03/04 04:39:44;;;;;;;22.40;16.08;;;;;;;;;;5135213;27;20218;-65
2021/03/04 04:42:13;;;;;;;27.83;16.25;;;;;;;;;;5134735;27;20186;-65
2021/03/04 04:44:40;;;;;;;20.02;14.00;;;;;;;;;;5143353;27;20212;-65
2021/03/04 04:47:07;;;;;;;30.20;16.13;;;;;;;;;;5135422;27;20618;-65
2021/03/04 04:49:34;;;;;;;24.67;15.50;;;;;;;;;;5134149;27;20560;-65
2021/03/04 04:52:03;;;;;;;26.98;15.05;;;;;;;;;;5134987;27;20566;-65
2021/03/04 04:54:32;;;;;;;22.30;14.15;;;;;;;;;;5117120;27;20198;-65
2021/03/04 04:57:02;;;;;;;22.90;14.85;;;;;;;;;;5135311;27;20198;-65
2021/03/04 04:59:30;;;;;;;21.65;13.07;;;;;;;;;;5135223;27;20225;-65
2021/03/04 05:01:57;;;;;;;25.63;13.68;;;;;;;;;;5135286;27;20194;-65
2021/03/04 05:04:24;;;;;;;24.20;14.68;;;;;;;;;;5133952;27;20206;-65
2021/03/04 05:06:53;;;;;;;31.15;15.27;;;;;;;;;;5134689;27;20193;-65
2021/03/04 05:09:21;;;;;;;22.90;14.43;;;;;;;;;;5134950;27;20206;-65
2021/03/04 05:11:52;;;;;;;24.40;14.15;;;;;;;;;;5134681;27;20178;-65
2021/03/04 05:14:19;;;;;;;24.10;14.30;;;;;;;;;;5143459;27;20200;-65
2021/03/04 05:16:50;;;;;;;26.67;14.88;;;;;;;;;;5134706;27;20178;-65
2021/03/04 05:19:18;;;;;;;19.17;13.25;;;;;;;;;;5134433;27;20210;-65
2021/03/04 05:21:45;;;;;;;19.90;13.68;;;;;;;;;;5133635;27;20557;-65
2021/03/04 05:24:11;;;;;;;25.02;13.70;;;;;;;;;;5134954;27;20200;-65
2021/03/04 05:26:39;;;;;;;23.52;14.95;;;;;;;;;;5134690;27;20190;-65
2021/03/04 05:29:05;;;;;;;24.40;13.35;;;;;;;;;;5134923;27;20543;-65
2021/03/04 05:31:32;;;;;;;22.88;14.55;;;;;;;;;;5134302;27;20202;-65
2021/03/04 05:34:01;;;;;;;31.35;15.13;;;;;;;;;;5133943;28;20212;-65
2021/03/04 05:36:27;;;;;;;26.75;15.02;;;;;;;;;;5133668;28;20201;-65
2021/03/04 05:38:54;;;;;;;29.75;15.80;;;;;;;;;;5134458;28;20704;-65
2021/03/04 05:41:22;;;;;;;21.10;13.90;;;;;;;;;;5133785;28;20205;-65
2021/03/04 05:43:54;;;;;;;20.30;12.95;;;;;;;;;;5141579;27;20210;-65
2021/03/04 05:46:21;;;;;;;24.83;15.35;;;;;;;;;;5135895;27;20235;-65
2021/03/04 05:48:49;;;;;;;24.13;14.95;;;;;;;;;;5133269;28;20222;-65
2021/03/04 05:51:31;;;;;;;23.83;14.25;;;;;;;;;;5134241;28;20221;-65
2021/03/04 05:54:00;;;;;;;21.45;14.85;;;;;;;;;;5136613;27;20325;-65
2021/03/04 05:56:27;;;;;;;24.67;14.77;;;;;;;;;;5138605;27;20193;-65
2021/03/04 05:58:54;;;;;;;23.23;16.80;;;;;;;;;;5138772;27;20197;-65
2021/03/04 06:01:20;;;;;;;23.45;15.90;;;;;;;;;;5138489;27;20189;-65
2021/03/04 06:03:48;;;;;;;34.40;16.35;;;;;;;;;;5138393;27;20705;-65
2021/03/04 06:06:16;;;;;;;24.38;16.02;;;;;;;;;;5138510;27;20186;-66
2021/03/04 06:08:42;;;;;;;28.25;13.88;;;;;;;;;;5119486;27;20645;-65
2021/03/04 06:11:10;;;;;;;23.77;15.40;;;;;;;;;;5138365;27;20210;-65
2021/03/04 06:13:37;;;;;;;20.58;13.63;;;;;;;;;;5143821;27;20642;-65
2021/03/04 06:16:07;;;;;;;23.10;13.05;;;;;;;;;;5141142;27;20653;-65
2021/03/04 06:18:41;;;;;;;20.38;14.48;;;;;;;;;;5137144;27;20706;-65
2021/03/04 06:21:37;;;;;;;25.77;13.50;;;;;;;;;;5138313;27;20194;-65
2021/03/04 06:24:13;;;;;;;17.50;12.85;;;;;;;;;;5125227;27;20205;-65
2021/03/04 06:26:39;;;;;;;19.63;13.43;;;;;;;;;;5138098;27;20571;-65
2021/03/04 06:29:16;;;;;;;19.17;13.35;;;;;;;;;;5138298;27;20236;-65
2021/03/04 06:31:58;;;;;;;28.45;13.70;;;;;;;;;;5137817;27;20189;-65
2021/03/04 06:34:25;;;;;;;23.38;13.20;;;;;;;;;;5137490;27;20679;-65
2021/03/04 06:37:06;;;;;;;23.55;14.90;;;;;;;;;;5137912;27;20193;-65
2021/03/04 06:39:44;;;;;;;24.83;15.70;;;;;;;;;;5137809;27;20222;-65
2021/03/04 06:42:14;;;;;;;22.70;14.25;;;;;;;;;;5137589;27;20190;-65
2021/03/04 06:45:01;;;;;;;27.95;15.45;;;;;;;;;;5146178;27;20198;-65
2021/03/04 06:47:30;;;;;;;30.40;17.40;;;;;;;;;;5137398;27;20229;-65
2021/03/04 06:49:58;;;;;;;29.92;17.05;;;;;;;;;;5137239;27;20210;-65
2021/03/04 06:52:29;;;;;;;26.60;17.63;;;;;;;;;;5136980;27;20238;-65
2021/03/04 06:55:09;;;;;;;33.08;17.77;;;;;;;;;;5137531;27;20204;-65
2021/03/04 06:57:40;;;;;;;28.90;18.02;;;;;;;;;;5137316;27;20384;-65
2021/03/04 07:00:19;;;;;;;31.90;17.30;;;;;;;;;;5137134;27;20220;-65
2021/03/04 07:02:56;;;;;;;32.25;17.67;;;;;;;;;;5136611;27;20204;-65
2021/03/04 07:05:24;;;;;;;28.65;18.35;;;;;;;;;;5136956;27;20203;-65
2021/03/04 07:07:52;;;;;;;30.55;17.38;;;;;;;;;;5136841;27;20224;-65
2021/03/04 07:10:20;;;;;;;25.40;18.48;;;;;;;;;;5136970;27;20206;-65
2021/03/04 07:12:48;;;;;;;29.92;19.60;;;;;;;;;;5137227;27;20240;-65
2021/03/04 07:15:16;;;;;;;30.25;20.45;;;;;;;;;;5145273;27;20212;-65
2021/03/04 07:17:46;;;;;;;33.22;17.85;;;;;;;;;;5137186;27;20213;-73
2021/03/04 07:20:19;;;;;;;32.58;19.05;;;;;;;;;;5137173;27;20199;-66
2021/03/04 07:22:47;;;;;;;29.58;18.55;;;;;;;;;;5137205;27;20548;-66
2021/03/04 07:25:16;;;;;;;28.48;18.67;;;;;;;;;;5136801;27;20205;-66
2021/03/04 07:27:43;;;;;;;32.13;20.83;;;;;;;;;;5136866;27;20228;-66
2021/03/04 07:30:12;;;;;;;30.95;19.70;;;;;;;;;;5137119;27;20280;-66
2021/03/04 07:32:42;;;;;;;30.17;18.80;;;;;;;;;;5137215;27;20197;-66
2021/03/04 07:35:12;;;;;;;23.60;17.52;;;;;;;;;;5135984;27;20194;-66
2021/03/04 07:37:42;;;;;;;25.95;17.60;;;;;;;;;;5136775;27;20198;-66
2021/03/04 07:40:12;;;;;;;36.95;18.63;;;;;;;;;;5136294;27;20345;-66
2021/03/04 07:42:39;;;;;;;27.63;18.98;;;;;;;;;;5136268;27;20201;-66
2021/03/04 07:45:13;;;;;;;25.52;18.45;;;;;;;;;;5129884;27;20210;-67
2021/03/04 07:47:43;;;;;;;31.48;19.17;;;;;;;;;;5136304;27;20572;-67
2021/03/04 07:50:18;;;;;;;28.95;17.52;;;;;;;;;;5136511;27;20534;-66
2021/03/04 07:52:45;;;;;;;25.67;17.92;;;;;;;;;;5135483;27;20681;-67
2021/03/04 07:55:13;;;;;;;31.65;17.25;;;;;;;;;;5118110;27;20207;-67
2021/03/04 07:57:48;;;;;;;24.17;17.35;;;;;;;;;;5136144;27;20198;-67
2021/03/04 08:00:22;;;;;;;26.63;17.05;;;;;;;;;;5136150;27;20650;-65
2021/03/04 08:03:02;;;;;;;30.25;17.40;;;;;;;;;;5136107;27;20174;-65
2021/03/04 08:05:33;;;;;;;26.17;18.00;;;;;;;;;;5136592;27;20194;-66
2021/03/04 08:08:14;;;;;;;26.73;16.52;;;;;;;;;;5135902;27;20220;-66
2021/03/04 08:10:54;;;;;;;24.85;17.05;;;;;;;;;;5136281;27;20206;-66
2021/03/04 08:13:33;;;;;;;21.90;15.63;;;;;;;;;;5139796;27;20698;-66
2021/03/04 08:16:00;;;;;;;21.33;15.32;;;;;;;;;;5138166;27;20205;-66
2021/03/04 08:18:29;;;;;;;24.50;16.33;;;;;;;;;;5135926;27;20198;-66
2021/03/04 08:21:04;;;;;;;27.00;15.75;;;;;;;;;;5135466;27;20221;-66
2021/03/04 08:23:33;;;;;;;24.95;16.05;;;;;;;;;;5117768;27;20204;-66
2021/03/04 08:26:02;;;;;;;21.80;15.88;;;;;;;;;;5135661;27;20198;-66
2021/03/04 08:28:29;;;;;;;27.88;15.32;;;;;;;;;;5135665;27;20618;-66
2021/03/04 08:31:05;;;;;;;20.67;15.07;;;;;;;;;;5135630;27;20198;-66
2021/03/04 08:33:31;;;;;;;22.38;15.45;;;;;;;;;;5134396;27;20208;-66
2021/03/04 08:36:01;;;;;;;20.67;13.90;;;;;;;;;;5135428;27;20587;-66
2021/03/04 08:38:28;;;;;;;22.23;14.90;;;;;;;;;;5135088;27;20197;-66
2021/03/04 08:41:00;;;;;;;22.33;12.95;;;;;;;;;;5135453;27;20232;-66
2021/03/04 08:43:28;;;;;;;22.05;14.65;;;;;;;;;;5139992;27;20224;-66
2021/03/04 08:45:59;;;;;;;20.50;14.73;;;;;;;;;;5137941;27;20759;-66
2021/03/04 08:48:26;;;;;;;20.52;13.05;;;;;;;;;;5117494;27;20209;-65
2021/03/04 08:50:54;;;;;;;23.08;14.02;;;;;;;;;;5135088;27;20251;-65
2021/03/04 08:53:22;;;;;;;20.92;13.00;;;;;;;;;;5134968;27;20220;-66
2021/03/04 08:55:54;;;;;;;19.30;13.30;;;;;;;;;;5135038;27;20190;-66
2021/03/04 08:58:21;;;;;;;27.02;13.75;;;;;;;;;;5134638;27;20201;-66
2021/03/04 09:01:14;;;;;;;16.35;11.88;;;;;;;;;;5134867;27;20230;-66
2021/03/04 09:03:46;;;;;;;24.98;13.80;;;;;;;;;;5135094;27;20202;-66
2021/03/04 09:06:14;;;;;;;20.70;12.93;;;;;;;;;;5134331;27;20276;-66
2021/03/04 09:08:42;;;;;;;19.98;14.55;;;;;;;;;;5134334;27;20205;-66
2021/03/04 09:11:10;;;;;;;19.17;12.93;;;;;;;;;;5135046;27;20193;-66
2021/03/04 09:13:37;;;;;;;19.83;11.57;;;;;;;;;;5140978;27;20258;-66
2021/03/04 09:16:07;;;;;;;20.05;12.20;;;;;;;;;;5137062;27;20206;-66
2021/03/04 09:18:44;;;;;;;18.98;11.60;;;;;;;;;;5134162;27;20273;-66
2021/03/04 09:21:12;;;;;;;27.83;12.35;;;;;;;;;;5134575;27;20227;-66
2021/03/04 09:23:39;;;;;;;22.75;12.95;;;;;;;;;;5134552;27;20186;-66
2021/03/04 09:26:07;;;;;;;19.98;12.20;;;;;;;;;;5134733;27;20194;-67
2021/03/04 09:28:38;;;;;;;15.85;11.50;;;;;;;;;;5135021;27;20256;-66
2021/03/04 09:31:16;;;;;;;15.50;10.52;;;;;;;;;;5116676;27;20212;-66
2021/03/04 09:33:44;;;;;;;18.53;11.00;;;;;;;;;;5134324;28;20201;-66
2021/03/04 09:36:11;;;;;;;18.80;10.83;;;;;;;;;;5115732;28;20615;-66
2021/03/04 09:38:38;;;;;;;19.40;11.93;;;;;;;;;;5134669;28;20614;-66
2021/03/04 09:41:08;;;;;;;19.05;11.85;;;;;;;;;;5134166;28;20974;-65
2021/03/04 09:43:43;;;;;;;21.25;11.57;;;;;;;;;;5140544;27;20205;-65
2021/03/04 09:46:09;;;;;;;23.95;11.05;;;;;;;;;;5130686;28;20640;-66
2021/03/04 09:48:39;;;;;;;17.17;11.43;;;;;;;;;;5134729;28;20237;-65
2021/03/04 09:51:07;;;;;;;19.27;11.45;;;;;;;;;;5134209;28;20230;-65
2021/03/04 09:53:43;;;;;;;17.45;10.77;;;;;;;;;;5115705;28;20558;-65
2021/03/04 09:56:21;;;;;;;16.07;10.63;;;;;;;;;;5134855;28;20182;-65
2021/03/04 09:58:48;;;;;;;21.45;12.65;;;;;;;;;;5117177;28;20619;-67
2021/03/04 10:01:15;;;;;;;16.17;11.88;;;;;;;;;;5134281;28;20251;-66
2021/03/04 10:03:43;;;;;;;21.07;12.73;;;;;;;;;;5135299;28;20194;-66
2021/03/04 10:06:21;;;;;;;21.55;12.82;;;;;;;;;;5134352;28;20614;-66
2021/03/04 10:08:54;;;;;;;16.63;12.40;;;;;;;;;;5116988;28;20660;-66
2021/03/04 10:11:25;;;;;;;33.05;14.65;;;;;;;;;;5133898;28;20212;-66
2021/03/04 10:14:10;;;;;;;20.83;12.75;;;;;;;;;;5141828;27;20208;-66
2021/03/04 10:16:42;;;;;;;21.00;13.47;;;;;;;;;;5133676;28;20193;-66
2021/03/04 10:19:09;;;;;;;23.70;13.30;;;;;;;;;;5131792;28;20615;-66
2021/03/04 10:21:40;;;;;;;18.58;12.77;;;;;;;;;;5121874;28;20637;-66
2021/03/04 10:24:06;;;;;;;26.55;13.43;;;;;;;;;;5132689;28;20672;-66
2021/03/04 10:26:36;;;;;;;22.67;13.13;;;;;;;;;;5132897;28;20227;-66
2021/03/04 10:29:03;;;;;;;20.73;12.37;;;;;;;;;;5133606;28;20202;-66
2021/03/04 10:31:30;;;;;;;25.55;12.88;;;;;;;;;;5133390;28;21000;-66
2021/03/04 10:33:57;;;;;;;20.13;12.90;;;;;;;;;;5133740;28;20645;-66
2021/03/04 10:36:23;;;;;;;18.90;12.60;;;;;;;;;;5134311;28;20592;-66
2021/03/04 10:38:50;;;;;;;18.10;12.17;;;;;;;;;;5115309;27;20630;-66
2021/03/04 10:41:17;;;;;;;28.92;13.95;;;;;;;;;;5137815;27;20651;-66
2021/03/04 10:43:43;;;;;;;19.67;12.90;;;;;;;;;;5144082;27;20220;-66
2021/03/04 10:46:10;;;;;;;24.88;13.73;;;;;;;;;;5133456;27;20205;-66
2021/03/04 10:48:39;;;;;;;25.80;13.60;;;;;;;;;;5137643;27;20218;-66
2021/03/04 10:51:06;;;;;;;20.60;12.43;;;;;;;;;;5137947;27;20647;-66
2021/03/04 10:53:34;;;;;;;17.80;12.38;;;;;;;;;;5137435;27;20197;-66
2021/03/04 10:56:01;;;;;;;24.10;13.02;;;;;;;;;;5137573;27;20197;-66
2021/03/04 10:58:29;;;;;;;20.73;12.13;;;;;;;;;;5137145;27;20662;-66
2021/03/04 11:01:08;;;;;;;27.33;12.10;;;;;;;;;;5121367;27;20619;-66
2021/03/04 11:03:38;;;;;;;17.20;10.57;;;;;;;;;;5137722;27;21044;-66
2021/03/04 11:06:07;;;;;;;19.58;11.55;;;;;;;;;;5136855;27;20609;-65
2021/03/04 11:08:36;;;;;;;21.37;11.30;;;;;;;;;;5136973;27;20182;-66
2021/03/04 11:11:03;;;;;;;14.93;10.13;;;;;;;;;;5137092;27;20597;-65
2021/03/04 11:13:29;;;;;;;19.10;11.90;;;;;;;;;;5143119;27;20624;-66
2021/03/04 11:15:56;;;;;;;26.70;10.43;;;;;;;;;;5138880;27;20701;-66
2021/03/04 11:18:23;;;;;;;19.20;11.97;;;;;;;;;;5139460;27;20562;-65
2021/03/04 11:20:53;;;;;;;21.57;11.87;;;;;;;;;;5119476;27;20677;-65
2021/03/04 11:23:19;;;;;;;15.83;11.60;;;;;;;;;;5137151;27;20993;-65
2021/03/04 11:25:46;;;;;;;50.70;13.27;;;;;;;;;;5137917;27;20554;-66
2021/03/04 11:28:13;;;;;;;18.05;11.48;;;;;;;;;;5138202;27;20590;-66
2021/03/04 11:30:39;;;;;;;19.13;11.13;;;;;;;;;;5136136;27;20201;-65
2021/03/04 11:33:08;;;;;;;18.77;12.50;;;;;;;;;;5136611;27;20627;-65
2021/03/04 11:35:35;;;;;;;24.97;11.80;;;;;;;;;;5136676;27;20667;-65
2021/03/04 11:38:01;;;;;;;22.33;11.40;;;;;;;;;;5117910;27;20616;-65
2021/03/04 11:40:28;;;;;;;17.80;10.20;;;;;;;;;;5136871;27;20991;-66
2021/03/04 11:42:57;;;;;;;21.83;10.47;;;;;;;;;;5138359;27;21046;-66
2021/03/04 11:45:23;;;;;;;14.70;9.17;;;;;;;;;;5142973;27;20618;-65
2021/03/04 11:47:50;;;;;;;18.17;10.63;;;;;;;;;;5135691;27;21182;-66
2021/03/04 11:50:20;;;;;;;13.40;9.20;;;;;;;;;;5136014;27;20580;-66
2021/03/04 11:52:49;;;;;;;15.50;9.73;;;;;;;;;;5135126;27;20658;-66
2021/03/04 11:55:17;;;;;;;18.53;10.10;;;;;;;;;;5136010;27;20985;-66
2021/03/04 11:57:44;;;;;;;17.07;10.47;;;;;;;;;;5136267;27;20611;-66
2021/03/04 12:00:11;;;;;;;21.63;10.90;;;;;;;;;;5136058;27;20696;-65
2021/03/04 12:02:38;;;;;;;13.73;9.60;;;;;;;;;;5136014;27;20699;-67
2021/03/04 12:05:05;;;;;;;16.23;9.10;;;;;;;;;;5135880;27;20597;-67
2021/03/04 12:07:37;;;;;;;15.23;8.33;;;;;;;;;;5136349;27;20611;-65
2021/03/04 12:10:08;;;;;;;15.63;7.63;;;;;;;;;;5136004;27;20679;-65
2021/03/04 12:12:38;;;;;;;16.73;7.20;;;;;;;;;;5117671;27;20619;-66
2021/03/04 12:15:07;;;;;;;13.13;7.53;;;;;;;;;;5122936;27;20631;-66
2021/03/04 12:17:38;;;;;;;17.57;7.90;;;;;;;;;;5135888;27;20552;-66
2021/03/04 12:20:05;;;;;;;17.30;7.50;;;;;;;;;;5135475;27;20638;-66
2021/03/04 12:22:31;;;;;;;14.57;8.07;;;;;;;;;;5135492;27;20957;-66
2021/03/04 12:24:58;;;;;;;20.83;8.40;;;;;;;;;;5135629;27;20915;-67
2021/03/04 12:27:25;;;;;;;22.37;7.87;;;;;;;;;;5099929;27;20718;-67
2021/03/04 12:29:51;;;;;;;12.03;7.50;;;;;;;;;;5135511;27;20698;-67
2021/03/04 12:32:19;;;;;;;9.30;6.93;;;;;;;;;;5135307;27;20619;-67
2021/03/04 12:34:46;;;;;;;15.20;7.70;;;;;;;;;;5135482;27;21101;-67
2021/03/04 12:37:15;;;;;;;18.23;7.03;;;;;;;;;;5135414;27;20603;-67
2021/03/04 12:39:42;;;;;;;13.93;8.13;;;;;;;;;;5135731;27;20600;-65
2021/03/04 12:42:09;;;;;;;12.60;7.10;;;;;;;;;;5135425;27;20643;-65
2021/03/04 12:44:36;;;;;;;16.27;7.37;;;;;;;;;;5126588;27;20612;-66
2021/03/04 12:47:03;;;;;;;19.17;7.50;;;;;;;;;;5135318;27;20599;-65
2021/03/04 12:49:30;;;;;;;11.80;8.20;;;;;;;;;;5135352;27;20660;-66
2021/03/04 12:51:57;;;;;;;16.10;6.60;;;;;;;;;;5135136;27;20643;-65
2021/03/04 12:54:25;;;;;;;11.50;6.70;;;;;;;;;;5135609;27;21234;-64
2021/03/04 12:56:55;;;;;;;21.97;8.03;;;;;;;;;;5135251;27;20971;-65
2021/03/04 12:59:22;;;;;;;13.40;7.90;;;;;;;;;;5134730;27;20970;-66
2021/03/04 13:01:50;;;;;;;15.63;6.73;;;;;;;;;;5134737;27;20643;-66
2021/03/04 13:04:18;;;;;;;13.30;8.27;;;;;;;;;;5134891;27;20615;-66
2021/03/04 13:06:48;;;;;;;9.23;7.20;;;;;;;;;;5134883;27;20623;-66
2021/03/04 13:09:16;;;;;;;19.23;10.20;;;;;;;;;;5134657;27;20618;-66
2021/03/04 13:11:45;;;;;;;18.13;12.77;;;;;;;;;;5134471;27;20610;-66
2021/03/04 13:14:14;;;;;;;25.57;13.10;;;;;;;;;;5125970;27;21224;-66
2021/03/04 13:16:41;;;;;;;21.27;12.80;;;;;;;;;;5116181;27;20645;-66
2021/03/04 13:19:10;;;;;;;26.27;14.43;;;;;;;;;;5135135;27;20606;-65
2021/03/04 13:21:40;;;;;;;20.87;12.67;;;;;;;;;;5134627;27;20570;-66
2021/03/04 13:24:07;;;;;;;24.57;13.00;;;;;;;;;;5133089;27;21167;-66
2021/03/04 13:26:34;;;;;;;17.77;11.90;;;;;;;;;;5134433;27;20609;-66
2021/03/04 13:29:01;;;;;;;17.77;11.60;;;;;;;;;;5134569;27;20669;-66
2021/03/04 13:31:27;;;;;;;18.20;10.07;;;;;;;;;;5134376;27;20723;-66
2021/03/04 13:33:54;;;;;;;18.13;10.80;;;;;;;;;;5133945;27;20619;-66
2021/03/04 13:36:21;;;;;;;18.20;10.10;;;;;;;;;;5134750;27;20582;-66
2021/03/04 13:38:47;;;;;;;20.77;11.60;;;;;;;;;;5116353;27;20623;-66
2021/03/04 13:41:16;;;;;;;22.20;11.03;;;;;;;;;;5134393;27;20677;-66
2021/03/04 13:43:42;;;;;;;20.60;10.77;;;;;;;;;;5140696;27;20593;-66
2021/03/04 13:46:09;;;;;;;18.87;10.33;;;;;;;;;;5137074;27;20953;-66
2021/03/04 13:48:36;;;;;;;17.20;9.77;;;;;;;;;;5134688;28;21256;-66
2021/03/04 13:51:04;;;;;;;21.33;11.80;;;;;;;;;;5134462;28;20660;-65
2021/03/04 13:53:31;;;;;;;22.80;10.67;;;;;;;;;;5134497;28;21114;-67
2021/03/04 13:56:00;;;;;;;15.07;10.17;;;;;;;;;;5134961;28;20592;-66
2021/03/04 13:58:28;;;;;;;24.40;10.70;;;;;;;;;;5134688;28;20603;-67
2021/03/04 14:00:56;;;;;;;16.33;11.37;;;;;;;;;;5134774;28;20609;-66
2021/03/04 14:03:22;;;;;;;11.50;8.20;;;;;;;;;;5134511;28;20591;-66
2021/03/04 14:05:49;;;;;;;18.93;9.13;;;;;;;;;;5134091;28;20612;-67
2021/03/04 14:08:17;;;;;;;15.93;10.00;;;;;;;;;;5134896;28;20610;-66
2021/03/04 14:10:45;;;;;;;23.57;10.07;;;;;;;;;;5134564;28;20582;-66
2021/03/04 14:13:12;;;;;;;19.03;9.60;;;;;;;;;;5138031;27;20631;-66
2021/03/04 14:15:38;;;;;;;19.50;9.47;;;;;;;;;;5142315;27;20995;-65
2021/03/04 14:18:05;;;;;;;12.00;9.47;;;;;;;;;;5137274;27;20654;-66
2021/03/04 14:20:32;;;;;;;26.73;10.30;;;;;;;;;;5137862;27;20654;-66
2021/03/04 14:23:00;;;;;;;23.50;9.70;;;;;;;;;;5138434;27;20604;-66
2021/03/04 14:25:26;;;;;;;13.30;8.60;;;;;;;;;;5137460;27;20615;-65
2021/03/04 14:27:56;;;;;;;14.67;10.27;;;;;;;;;;5138290;27;20602;-65